createdAt,value
2019-04-22T00:02:22.595Z,47.60
2019-04-22T00:04:55.114Z,47.90
2019-04-22T00:07:40.315Z,47.70
2019-04-22T00:10:03.369Z,47.80
2019-04-22T00:12:22.289Z,47.30
2019-04-22T00:14:42.528Z,47.50
2019-04-22T00:19:38.873Z,47.80
2019-04-22T00:21:55.757Z,48.60
2019-04-22T00:24:17.374Z,49.50
2019-04-22T00:26:44.390Z,49.60
2019-04-22T00:29:12.658Z,49.70
2019-04-22T00:31:26.894Z,49.60
2019-04-22T00:33:53.234Z,49.90
2019-04-22T00:36:16.547Z,50.00
2019-04-22T00:38:38.738Z,50.10
2019-04-22T00:41:05.880Z,50.30
2019-04-22T00:43:24.351Z,50.60
2019-04-22T00:45:49.235Z,50.60
2019-04-22T00:48:16.656Z,50.70
2019-04-22T00:50:37.445Z,50.60
2019-04-22T00:53:04.365Z,50.60
2019-04-22T00:55:29.202Z,50.90
2019-04-22T00:57:46.206Z,51.00
2019-04-22T01:00:13.329Z,51.20
2019-04-22T01:02:34.589Z,51.20
2019-04-22T01:05:02.079Z,51.50
2019-04-22T01:07:17.640Z,51.90
2019-04-22T01:09:49.841Z,52.10
2019-04-22T01:12:08.726Z,52.40
2019-04-22T01:14:28.379Z,52.60
2019-04-22T01:16:53.761Z,52.80
2019-04-22T01:19:19.836Z,52.40
2019-04-22T01:21:40.281Z,52.20
2019-04-22T01:23:59.777Z,51.90
2019-04-22T01:26:21.549Z,51.60
2019-04-22T01:28:39.922Z,51.90
2019-04-22T01:30:59.350Z,51.40
2019-04-22T01:33:23.730Z,51.00
2019-04-22T01:36:00.429Z,51.60
2019-04-22T01:38:18.927Z,51.20
2019-04-22T01:40:52.839Z,51.30
2019-04-22T01:43:20.223Z,51.00
2019-04-22T01:45:54.693Z,51.20
2019-04-22T01:48:00.611Z,50.80
2019-04-22T01:50:29.279Z,51.20
2019-04-22T01:52:52.059Z,51.30
2019-04-22T01:55:22.605Z,51.20
2019-04-22T01:57:32.027Z,51.60
2019-04-22T01:59:48.799Z,51.90
2019-04-22T02:02:22.173Z,52.00
2019-04-22T02:04:50.192Z,52.20
2019-04-22T02:07:09.649Z,52.20
2019-04-22T02:12:04.641Z,52.50
2019-04-22T02:14:23.488Z,52.30
2019-04-22T02:16:41.290Z,52.30
2019-04-22T02:19:11.629Z,52.50
2019-04-22T02:21:31.019Z,52.60
2019-04-22T02:26:18.992Z,53.40
2019-04-22T02:28:39.969Z,53.30
2019-04-22T02:36:18.651Z,52.50
2019-04-22T02:38:34.858Z,52.70
2019-04-22T02:41:06.766Z,53.00
2019-04-22T02:43:11.849Z,53.00
2019-04-22T02:45:46.844Z,53.20
2019-04-22T02:47:59.306Z,53.40
2019-04-22T02:50:15.709Z,53.90
2019-04-22T02:52:42.981Z,54.10
2019-04-22T02:57:39.707Z,53.80
2019-04-22T02:59:57.374Z,54.00
2019-04-22T03:02:19.604Z,54.00
2019-04-22T03:04:37.459Z,54.30
2019-04-22T03:06:45.971Z,54.20
2019-04-22T03:09:25.531Z,54.40
2019-04-22T03:11:56.627Z,54.40
2019-04-22T03:14:22.884Z,54.50
2019-04-22T03:21:18.590Z,56.00
2019-04-22T03:24:01.637Z,56.50
2019-04-22T03:28:44.395Z,57.60
2019-04-22T03:31:36.913Z,58.00
2019-04-22T03:33:51.863Z,57.90
2019-04-22T03:36:05.304Z,57.50
2019-04-22T03:38:41.496Z,57.00
2019-04-22T03:40:52.840Z,57.30
2019-04-22T03:43:14.041Z,57.80
2019-04-22T03:45:34.029Z,58.00
2019-04-22T03:52:59.681Z,58.40
2019-04-22T03:57:49.253Z,58.50
2019-04-22T03:59:56.983Z,58.50
2019-04-22T04:02:31.725Z,58.70
2019-04-22T04:04:47.490Z,58.90
2019-04-22T04:07:34.777Z,59.00
2019-04-22T04:11:59.982Z,59.00
2019-04-22T04:16:49.995Z,58.90
2019-04-22T04:21:43.619Z,59.30
2019-04-22T04:24:29.598Z,59.50
2019-04-22T04:26:30.735Z,59.70
2019-04-22T04:28:58.040Z,59.80
2019-04-22T04:31:02.663Z,59.70
2019-04-22T04:33:23.342Z,59.80
2019-04-22T04:37:58.812Z,60.30
2019-04-22T04:40:37.371Z,60.00
2019-04-22T04:45:40.970Z,60.20
2019-04-22T05:00:11.141Z,59.50
2019-04-22T05:02:09.392Z,59.20
2019-04-22T05:11:51.965Z,58.20
2019-04-22T05:14:19.184Z,57.70
2019-04-22T05:18:54.689Z,58.20
2019-04-22T05:21:16.458Z,58.30
2019-04-22T05:23:40.085Z,57.80
2019-04-22T05:25:57.899Z,57.60
2019-04-22T05:28:20.510Z,57.40
2019-04-22T05:30:46.042Z,57.00
2019-04-22T05:33:09.000Z,56.90
2019-04-22T05:35:31.222Z,56.90
2019-04-22T05:38:02.738Z,56.30
2019-04-22T05:40:24.371Z,56.00
2019-04-22T05:42:44.179Z,55.80
2019-04-22T05:45:10.170Z,54.80
2019-04-22T05:47:28.851Z,54.30
2019-04-22T05:49:48.082Z,54.50
2019-04-22T05:52:14.940Z,54.00
2019-04-22T05:54:38.986Z,53.40
2019-04-22T05:57:11.041Z,52.30
2019-04-22T05:59:34.417Z,52.30
2019-04-22T06:01:59.794Z,52.40
2019-04-22T06:04:42.548Z,52.40
2019-04-22T06:06:53.847Z,51.90
2019-04-22T06:09:24.357Z,51.60
2019-04-22T06:11:36.290Z,50.80
2019-04-22T06:14:00.927Z,49.80
2019-04-22T06:16:35.103Z,50.50
2019-04-22T06:18:56.434Z,50.30
2019-04-22T06:21:18.681Z,49.90
2019-04-22T06:23:46.864Z,49.40
2019-04-22T06:28:38.752Z,49.20
2019-04-22T06:30:57.510Z,48.80
2019-04-22T06:38:28.574Z,48.40
2019-04-22T06:40:26.023Z,47.90
2019-04-22T06:42:56.529Z,47.50
2019-04-22T06:45:15.169Z,48.00
2019-04-22T06:47:55.993Z,47.70
2019-04-22T06:50:07.576Z,47.70
2019-04-22T06:52:22.840Z,46.60
2019-04-22T06:54:54.300Z,46.90
2019-04-22T06:57:11.622Z,46.50
2019-04-22T06:59:40.269Z,45.50
2019-04-22T07:02:04.843Z,46.40
2019-04-22T07:04:22.262Z,45.90
2019-04-22T07:11:29.595Z,45.10
2019-04-22T07:14:01.793Z,45.70
2019-04-22T07:16:26.231Z,46.20
2019-04-22T07:19:01.799Z,45.40
2019-04-22T07:21:05.940Z,44.90
2019-04-22T07:23:35.005Z,44.70
2019-04-22T07:25:52.173Z,44.70
2019-04-22T07:28:15.696Z,44.70
2019-04-22T07:30:39.424Z,43.50
2019-04-22T07:35:36.265Z,44.20
2019-04-22T07:37:55.601Z,43.80
2019-04-22T07:40:16.855Z,44.10
2019-04-22T07:42:44.053Z,44.00
2019-04-22T07:45:28.133Z,43.70
2019-04-22T07:47:36.029Z,44.10
2019-04-22T07:49:50.822Z,43.60
2019-04-22T07:52:20.303Z,43.20
2019-04-22T07:54:43.407Z,43.30
2019-04-22T07:57:10.212Z,43.70
2019-04-22T07:59:32.144Z,42.70
2019-04-22T08:01:53.647Z,42.70
2019-04-22T08:04:23.155Z,42.30
2019-04-22T08:06:43.784Z,41.70
2019-04-22T08:09:11.484Z,42.00
2019-04-22T08:11:37.606Z,41.00
2019-04-22T08:13:47.436Z,40.90
2019-04-22T08:16:10.319Z,39.80
2019-04-22T08:18:34.376Z,39.70
2019-04-22T08:20:58.451Z,39.60
2019-04-22T08:23:23.867Z,38.80
2019-04-22T08:25:45.848Z,38.20
2019-04-22T08:28:14.222Z,38.40
2019-04-22T08:30:44.550Z,38.50
2019-04-22T08:33:04.783Z,38.20
2019-04-22T08:35:38.310Z,38.00
2019-04-22T08:40:15.422Z,37.50
2019-04-22T08:42:43.213Z,37.70
2019-04-22T08:47:27.748Z,38.00
2019-04-22T08:49:52.058Z,38.20
2019-04-22T08:52:08.688Z,37.90
2019-04-22T08:54:33.971Z,37.40
2019-04-22T09:01:38.069Z,36.40
2019-04-22T09:04:04.037Z,36.90
2019-04-22T09:08:56.910Z,35.90
2019-04-22T09:11:16.054Z,35.70
2019-04-22T09:13:35.490Z,35.40
2019-04-22T09:16:08.884Z,34.80
2019-04-22T09:18:24.697Z,34.60
2019-04-22T09:20:51.466Z,33.90
2019-04-22T09:23:14.985Z,33.50
2019-04-22T09:25:34.556Z,32.70
2019-04-22T09:27:57.824Z,33.00
2019-04-22T09:30:20.431Z,32.90
2019-04-22T09:32:44.928Z,33.10
2019-04-22T09:35:02.715Z,33.50
2019-04-22T09:37:34.905Z,33.50
2019-04-22T09:40:01.111Z,33.10
2019-04-22T09:42:17.452Z,33.30
2019-04-22T09:44:40.201Z,34.30
2019-04-22T09:47:00.338Z,35.10
2019-04-22T09:49:26.621Z,35.10
2019-04-22T09:51:54.016Z,35.70
2019-04-22T09:54:18.906Z,36.00
2019-04-22T09:56:37.433Z,36.30
2019-04-22T09:59:13.962Z,37.00
2019-04-22T10:01:38.885Z,37.40
2019-04-22T10:03:51.686Z,37.30
2019-04-22T10:06:16.512Z,37.20
2019-04-22T10:08:40.734Z,36.90
2019-04-22T10:11:04.696Z,37.30
2019-04-22T10:13:32.332Z,37.60
2019-04-22T10:15:46.833Z,37.00
2019-04-22T10:18:09.750Z,37.60
2019-04-22T10:20:32.789Z,37.10
2019-04-22T10:22:59.234Z,37.60
2019-04-22T10:25:18.208Z,37.50
2019-04-22T10:27:51.435Z,37.50
2019-04-22T10:30:03.103Z,37.20
2019-04-22T10:32:33.500Z,37.40
2019-04-22T10:34:44.026Z,37.90
2019-04-22T10:37:04.423Z,37.00
2019-04-22T10:39:35.699Z,37.70
2019-04-22T10:41:46.523Z,38.10
2019-04-22T10:44:08.855Z,37.90
2019-04-22T10:46:30.501Z,38.20
2019-04-22T10:48:52.779Z,38.70
2019-04-22T10:51:14.799Z,38.40
2019-04-22T10:53:37.544Z,38.90
2019-04-22T10:55:59.259Z,39.10
2019-04-22T10:58:21.063Z,39.80
2019-04-22T11:00:45.259Z,40.80
2019-04-22T11:03:08.343Z,40.50
2019-04-22T11:05:32.345Z,40.50
2019-04-22T11:07:57.934Z,41.00
2019-04-22T11:10:33.568Z,40.80
2019-04-22T11:12:47.128Z,40.30
2019-04-22T11:15:09.836Z,40.70
2019-04-22T11:17:31.621Z,41.00
2019-04-22T11:19:53.335Z,41.00
2019-04-22T11:22:20.643Z,40.80
2019-04-22T11:24:38.899Z,40.50
2019-04-22T11:27:01.109Z,40.70
2019-04-22T11:29:23.732Z,40.20
2019-04-22T11:31:46.467Z,38.80
2019-04-22T11:34:08.923Z,39.00
2019-04-22T11:36:32.525Z,39.70
2019-04-22T11:39:00.336Z,37.60
2019-04-22T11:41:17.472Z,38.00
2019-04-22T11:43:39.179Z,38.60
2019-04-22T11:46:01.017Z,39.00
2019-04-22T11:48:23.524Z,39.90
2019-04-22T11:50:46.165Z,39.70
2019-04-22T11:53:08.891Z,39.60
2019-04-22T11:55:31.080Z,39.90
2019-04-22T11:57:53.985Z,41.10
2019-04-22T12:00:18.728Z,40.70
2019-04-22T12:02:40.946Z,41.40
2019-04-22T12:05:07.956Z,41.60
2019-04-22T12:07:32.950Z,42.30
2019-04-22T12:09:53.416Z,42.80
2019-04-22T12:12:15.974Z,43.20
2019-04-22T12:14:38.239Z,43.10
2019-04-22T12:17:01.454Z,43.50
2019-04-22T12:19:29.404Z,42.90
2019-04-22T12:21:51.272Z,42.90
2019-04-22T12:24:13.220Z,42.80
2019-04-22T12:26:34.797Z,42.50
2019-04-22T12:28:57.276Z,42.30
2019-04-22T12:31:19.561Z,42.20
2019-04-22T12:33:41.618Z,41.50
2019-04-22T12:36:04.630Z,41.80
2019-04-22T12:38:27.404Z,41.60
2019-04-22T12:40:55.308Z,41.60
2019-04-22T12:43:14.304Z,41.40
2019-04-22T12:45:36.342Z,41.50
2019-04-22T12:47:57.969Z,41.60
2019-04-22T12:50:26.260Z,41.80
2019-04-22T12:52:50.552Z,42.10
2019-04-22T12:55:07.895Z,42.50
2019-04-22T12:57:30.269Z,42.30
2019-04-22T12:59:53.260Z,41.90
2019-04-22T13:02:15.469Z,42.10
2019-04-22T13:04:38.492Z,41.70
2019-04-22T13:07:01.741Z,41.70
2019-04-22T13:09:23.569Z,41.90
2019-04-22T13:11:45.947Z,42.10
2019-04-22T13:14:08.957Z,42.10
2019-04-22T13:16:31.326Z,41.70
2019-04-22T13:18:58.726Z,41.00
2019-04-22T13:21:16.393Z,41.00
2019-04-22T13:23:39.015Z,40.90
2019-04-22T13:26:01.146Z,41.00
2019-04-22T13:28:23.101Z,40.80
2019-04-22T13:30:46.412Z,41.00
2019-04-22T13:33:07.979Z,40.60
2019-04-22T13:35:29.815Z,40.80
2019-04-22T13:37:52.941Z,40.40
2019-04-22T13:40:15.153Z,40.40
2019-04-22T13:42:38.091Z,40.00
2019-04-22T13:45:00.148Z,40.10
2019-04-22T13:47:34.868Z,40.00
2019-04-22T13:50:17.647Z,40.20
2019-04-22T13:52:51.144Z,40.70
2019-04-22T13:54:58.486Z,39.90
2019-04-22T13:57:09.100Z,40.00
2019-04-22T13:59:26.728Z,40.20
2019-04-22T14:01:48.315Z,40.60
2019-04-22T14:04:12.498Z,40.30
2019-04-22T14:06:34.697Z,40.40
2019-04-22T14:08:56.273Z,40.40
2019-04-22T14:11:27.693Z,40.50
2019-04-22T14:13:41.905Z,40.40
2019-04-22T14:16:04.770Z,40.40
2019-04-22T14:18:26.462Z,41.10
2019-04-22T14:20:49.201Z,40.20
2019-04-22T14:23:12.331Z,40.40
2019-04-22T14:25:34.636Z,40.40
2019-04-22T14:28:01.836Z,40.10
2019-04-22T14:30:20.773Z,39.80
2019-04-22T14:32:43.996Z,40.20
2019-04-22T14:35:07.037Z,40.70
2019-04-22T14:37:29.876Z,40.60
2019-04-22T14:39:51.747Z,39.60
2019-04-22T14:42:34.383Z,39.40
2019-04-22T14:47:27.900Z,39.30
2019-04-22T14:49:47.365Z,38.60
2019-04-22T14:52:13.113Z,38.60
2019-04-22T14:54:26.462Z,38.00
2019-04-22T14:56:34.169Z,37.90
2019-04-22T14:58:56.574Z,38.00
2019-04-22T15:01:19.074Z,37.70
2019-04-22T15:03:44.071Z,37.40
2019-04-22T15:06:04.550Z,37.30
2019-04-22T15:08:26.895Z,37.20
2019-04-22T15:10:49.728Z,37.00
2019-04-22T15:13:11.720Z,36.60
2019-04-22T15:15:40.543Z,36.40
2019-04-22T15:18:06.258Z,36.60
2019-04-22T15:20:39.656Z,36.10
2019-04-22T15:23:02.389Z,36.50
2019-04-22T15:25:24.001Z,36.40
2019-04-22T15:27:45.903Z,36.40
2019-04-22T15:30:07.831Z,36.30
2019-04-22T15:32:29.607Z,36.70
2019-04-22T15:34:51.379Z,37.20
2019-04-22T15:37:13.967Z,37.50
2019-04-22T15:39:36.360Z,37.80
2019-04-22T15:42:11.364Z,38.20
2019-04-22T15:44:28.109Z,38.20
2019-04-22T15:46:50.868Z,38.50
2019-04-22T15:49:13.801Z,39.10
2019-04-22T15:51:36.920Z,39.60
2019-04-22T15:53:58.508Z,39.90
2019-04-22T15:56:21.103Z,40.20
2019-04-22T15:58:43.799Z,40.40
2019-04-22T16:01:12.915Z,40.60
2019-04-22T16:03:28.982Z,40.70
2019-04-22T16:05:52.103Z,40.90
2019-04-22T16:08:14.991Z,41.10
2019-04-22T16:10:37.929Z,41.60
2019-04-22T16:13:07.272Z,42.00
2019-04-22T16:15:24.732Z,42.60
2019-04-22T16:17:46.714Z,43.20
2019-04-22T16:20:09.122Z,43.70
2019-04-22T16:22:34.237Z,44.30
2019-04-22T16:25:15.711Z,44.50
2019-04-22T16:27:40.393Z,44.70
2019-04-22T16:30:03.659Z,44.80
2019-04-22T16:32:27.790Z,45.00
2019-04-22T16:34:49.896Z,45.20
2019-04-22T16:37:12.560Z,44.90
2019-04-22T16:39:36.512Z,45.10
2019-04-22T16:41:58.307Z,45.30
2019-04-22T16:44:20.737Z,45.30
2019-04-22T16:46:43.646Z,45.90
2019-04-22T16:49:05.672Z,45.60
2019-04-22T16:51:27.662Z,45.60
2019-04-22T16:53:49.597Z,45.50
2019-04-22T16:56:12.947Z,45.70
2019-04-22T16:58:34.910Z,46.00
2019-04-22T17:00:56.932Z,46.00
2019-04-22T17:03:20.657Z,46.50
2019-04-22T17:06:01.365Z,46.70
2019-04-22T17:08:24.574Z,47.40
2019-04-22T17:10:46.595Z,47.80
2019-04-22T17:13:13.714Z,48.20
2019-04-22T17:15:33.041Z,48.60
2019-04-22T17:17:55.207Z,48.90
2019-04-22T17:20:17.438Z,48.90
2019-04-22T17:22:39.711Z,49.20
2019-04-22T17:25:02.714Z,49.40
2019-04-22T17:27:24.485Z,49.50
2019-04-22T17:29:46.313Z,49.80
2019-04-22T17:32:11.731Z,49.80
2019-04-22T17:34:33.701Z,50.00
2019-04-22T17:36:55.237Z,49.90
2019-04-22T17:39:30.614Z,50.00
2019-04-22T17:41:59.648Z,50.10
2019-04-22T17:44:38.029Z,50.30
2019-04-22T17:46:56.090Z,50.40
2019-04-22T17:49:37.204Z,50.40
2019-04-22T17:52:17.563Z,50.90
2019-04-22T17:54:40.679Z,51.10
2019-04-22T17:57:02.113Z,51.20
2019-04-22T17:59:29.838Z,51.10
2019-04-22T18:01:46.667Z,51.40
2019-04-22T18:03:55.556Z,51.30
2019-04-22T18:06:45.374Z,51.50
2019-04-22T18:08:54.916Z,51.70
2019-04-22T18:11:29.445Z,52.00
2019-04-22T18:13:44.291Z,52.20
2019-04-22T18:16:09.580Z,52.20
2019-04-22T18:18:33.207Z,52.60
2019-04-22T18:20:50.940Z,52.80
2019-04-22T18:23:06.691Z,52.90
2019-04-22T18:25:36.354Z,53.20
2019-04-22T18:28:13.768Z,53.50
2019-04-22T18:30:20.080Z,53.80
2019-04-22T18:32:50.679Z,54.20
2019-04-22T18:35:14.146Z,54.50
2019-04-22T18:37:40.886Z,54.80
2019-04-22T18:40:01.998Z,55.10
2019-04-22T18:42:21.998Z,55.50
2019-04-22T18:44:56.010Z,55.60
2019-04-22T18:47:06.938Z,55.80
2019-04-22T18:49:33.900Z,55.90
2019-04-22T18:52:25.372Z,56.00
2019-04-22T18:55:04.471Z,56.30
2019-04-22T18:57:26.307Z,56.40
2019-04-22T18:59:36.134Z,56.20
2019-04-22T19:02:01.453Z,56.30
2019-04-22T19:04:27.031Z,56.40
2019-04-22T19:07:00.390Z,56.40
2019-04-22T19:09:38.659Z,56.50
2019-04-22T19:12:09.848Z,56.40
2019-04-22T19:14:24.849Z,56.40
2019-04-22T19:16:44.767Z,56.30
2019-04-22T19:21:33.802Z,56.30
2019-04-22T19:23:54.455Z,56.60
2019-04-22T19:26:30.797Z,57.00
2019-04-22T19:28:48.307Z,57.60
2019-04-22T19:31:09.135Z,58.00
2019-04-22T19:33:35.474Z,58.50
2019-04-22T19:35:58.246Z,58.90
2019-04-22T19:38:08.299Z,59.50
2019-04-22T19:40:50.527Z,59.90
2019-04-22T19:43:08.841Z,60.00
2019-04-22T19:45:26.545Z,60.40
2019-04-22T19:47:58.501Z,61.40
2019-04-22T19:50:16.503Z,61.20
2019-04-22T19:52:40.022Z,62.20
2019-04-22T19:55:08.977Z,63.10
2019-04-22T19:57:22.452Z,63.00
2019-04-22T20:00:05.124Z,63.90
2019-04-22T20:02:40.972Z,64.70
2019-04-22T20:05:11.122Z,65.80
2019-04-22T20:07:39.507Z,65.10
2019-04-22T20:10:04.685Z,64.90
2019-04-22T20:12:24.688Z,65.50
2019-04-22T20:14:51.104Z,66.10
2019-04-22T20:17:19.734Z,66.10
2019-04-22T20:19:47.956Z,66.40
2019-04-22T20:22:03.122Z,66.60
2019-04-22T20:24:12.918Z,66.90
2019-04-22T20:26:49.987Z,66.90
2019-04-22T20:29:11.718Z,67.00
2019-04-22T20:31:37.862Z,66.80
2019-04-22T20:34:03.383Z,67.10
2019-04-22T20:36:39.457Z,67.00
2019-04-22T20:38:46.667Z,66.90
2019-04-22T20:41:05.631Z,66.60
2019-04-22T20:46:03.119Z,66.60
2019-04-22T20:48:09.220Z,66.60
2019-04-22T20:50:41.765Z,66.40
2019-04-22T20:53:11.757Z,66.90
2019-04-22T20:55:25.522Z,67.00
2019-04-22T20:57:56.107Z,66.90
2019-04-22T21:00:11.669Z,67.20
2019-04-22T21:02:32.346Z,67.30
2019-04-22T21:04:53.864Z,67.40
2019-04-22T21:07:24.306Z,67.70
2019-04-22T21:09:49.307Z,68.00
2019-04-22T21:12:12.478Z,68.10
2019-04-22T21:14:36.109Z,68.10
2019-04-22T21:17:00.701Z,68.40
2019-04-22T21:19:28.035Z,68.50
2019-04-22T21:21:54.672Z,68.70
2019-04-22T21:24:03.133Z,68.70
2019-04-22T21:26:29.366Z,69.00
2019-04-22T21:28:54.057Z,69.10
2019-04-22T21:31:24.850Z,69.30
2019-04-22T21:33:44.486Z,69.30
2019-04-22T21:36:13.774Z,69.70
2019-04-22T21:38:34.231Z,70.00
2019-04-22T21:40:47.360Z,70.30
2019-04-22T21:43:19.944Z,70.40
2019-04-22T21:45:31.014Z,70.40
2019-04-22T21:48:11.545Z,71.10
2019-04-22T21:50:43.072Z,70.30
2019-04-22T21:52:59.483Z,70.20
2019-04-22T21:55:16.129Z,70.20
2019-04-22T21:57:40.044Z,70.30
2019-04-22T22:00:06.502Z,70.60
2019-04-22T22:02:28.257Z,70.80
2019-04-22T22:04:44.613Z,71.00
2019-04-22T22:06:59.903Z,71.10
2019-04-22T22:09:37.946Z,71.20
2019-04-22T22:11:53.996Z,71.40
2019-04-22T22:14:16.916Z,71.60
2019-04-22T22:16:38.396Z,71.80
2019-04-22T22:19:11.758Z,72.00
2019-04-22T22:21:42.093Z,72.30
2019-04-22T22:24:01.360Z,72.50
2019-04-22T22:26:15.625Z,72.70
2019-04-22T22:28:52.213Z,72.70
2019-04-22T22:31:14.838Z,72.70
2019-04-22T22:33:57.685Z,72.60
2019-04-22T22:36:12.027Z,72.70
2019-04-22T22:38:32.950Z,72.80
2019-04-22T22:40:43.264Z,73.10
2019-04-22T22:43:11.804Z,73.30
2019-04-22T22:45:33.680Z,73.50
2019-04-22T22:48:16.346Z,73.60
2019-04-22T22:50:30.329Z,73.90
2019-04-22T22:53:10.383Z,74.20
2019-04-22T22:55:21.717Z,74.40
2019-04-22T22:57:44.281Z,74.50
2019-04-22T23:00:08.499Z,74.50
2019-04-22T23:02:34.051Z,74.80
2019-04-22T23:04:59.471Z,75.10
2019-04-22T23:07:26.991Z,75.10
2019-04-22T23:09:47.861Z,75.40
2019-04-22T23:12:13.257Z,75.40
2019-04-22T23:14:26.773Z,75.50
2019-04-22T23:16:40.877Z,75.70
2019-04-22T23:19:05.118Z,75.80
2019-04-22T23:21:32.852Z,76.00
2019-04-22T23:24:04.358Z,76.20
2019-04-22T23:26:29.829Z,76.40
2019-04-22T23:28:53.121Z,76.60
2019-04-22T23:31:14.314Z,76.70
2019-04-22T23:33:49.454Z,77.00
2019-04-22T23:36:12.282Z,77.00
2019-04-22T23:38:49.006Z,77.10
2019-04-22T23:41:05.701Z,77.30
2019-04-22T23:43:34.212Z,77.30
2019-04-22T23:45:56.644Z,77.40
2019-04-22T23:48:13.069Z,77.40
2019-04-22T23:50:48.009Z,77.50
2019-04-22T23:53:11.515Z,77.50
2019-04-22T23:55:35.412Z,77.50
2019-04-22T23:57:57.024Z,77.60
